Wallace, Louisiana
Current Conditions -  °F | °C
As of 8:55 PM on Wednesday 22 Oct 2014 (Local Time) from K1L0 Reporting Station
Clear Clear  
Wind Chill: 62°   Ceiling: Unl
Heat Index: 62°   Visibility: 10mi
Dew Point: 59°   Wind: 3mph
Humidity: 91%   Direction: 20°NNE
Pressure: 30.06"   Gusts: NA
Location:  30.0045°N, 90.6027°W
Report Text: K1L0 230155Z AUTO 02003KT 10SM CLR 17/15 A3006 RMK AO2 T01650151
Loading
Personal Weather Stations






























Interactive Weather Map
Tropical Storm Tracking
New forecast layout! Learn more

10-Day Weather Forecast

Advertisements
Track Severe Weather on mobile